Weather observations for the past three days for
Kearney, Kearney Municipal Airport
Metric (Imperial)
Date Time (cdt) Wind (kph) Vis. (km) Weather Sky Cond. Temperature (ºC) Relative Humidity Wind Chill (°C) Heat Index (°C) Pressure Precipitation (cm)
Air Dwpt 6 hour altimeter (cm) sea level (mb) 1 hr 3 hr 6 hr
Max. Min.
08 06:56 Calm 16.09 Fair CLR 10 -0.6 12.8 8.3 48% 75.79 1009.5
08 05:56 N 13 16.09 Fair CLR 9.4 -1.1 48% 8 75.74 1009.0
08 04:56 N 13 16.09 Fair CLR 9.4 -0.6 50% 8 75.72 1008.3
08 03:56 NE 13 16.09 Overcast OVC100 11.1 0.6 49% 75.72 1008.4
08 02:56 N 17 16.09 Partly Cloudy SCT095 10.6 1.7 54% 75.74 1008.9
08 01:56 NE 11 16.09 Overcast OVC090 12.8 0.6 44% 75.77 1009.2
08 00:56 N 11 16.09 Overcast OVC095 12.2 1.1 22.8 11.1 47% 75.77 1009.3
07 23:56 Vrbl 9 16.09 Partly Cloudy SCT100 12.2 -0.6 42% 75.74 1009.2
07 22:56 E 9 16.09 Fair CLR 12.8 -1.1 38% 75.77 1009.5
07 21:56 E 11 16.09 Fair CLR 13.9 -2.2 33% 75.74 1009.3
07 20:56 E 17 16.09 Fair CLR 15.6 -1.7 31% 75.69 1008.8
07 19:56 Calm 16.09 Fair CLR 20 -0.6 25% 75.67 1008.3
07 18:56 N 7 16.09 Fair CLR 22.8 -2.8 23.9 21.1 18% 75.67 1008.3
07 17:56 N 9 16.09 Fair CLR 23.3 -3.9 16% 75.69 1008.4
07 16:56 W 15 16.09 Fair CLR 23.9 -3.3 16% 24 75.69 1008.6
07 15:56 NW 11 16.09 Fair CLR 23.3 -2.8 17% 75.74 1009.0
07 14:56 N 15 16.09 Fair CLR 22.2 -3.9 17% 75.77 1009.6
07 13:56 NW 24 G 31 16.09 Fair CLR 22.2 -3.3 18% 75.82 1010.1
07 12:56 NW 15 16.09 Fair CLR 21.1 -2.2 21.1 4.4 21% 75.82 1010.3
07 11:56 W 13 16.09 Fair CLR 18.3 0 29% 75.84 1010.7
07 10:56 W 17 16.09 Fair CLR 16.1 1.7 38% 75.87 1011.2
07 09:56 W 20 16.09 Fair CLR 12.8 2.2 49% 75.9 1011.7
07 08:56 W 22 16.09 Fair CLR 9.4 2.2 61% 7 75.9 1012.0
07 07:56 SW 20 16.09 Fair CLR 6.7 1.7 71% 3 75.9 1011.9
07 06:56 SW 22 16.09 Fair CLR 4.4 1.7 7.2 3.9 83% 0 75.92 1012.3
07 05:56 SW 17 16.09 Fair CLR 5 1.7 79% 2 75.97 1012.9
07 04:56 SW 20 16.09 Fair CLR 5.6 2.2 79% 2 76.02 1013.7
07 03:56 SW 26 16.09 Fair CLR 6.1 2.2 76% 2 76.05 1014.1
07 02:56 SW 28 G 35 16.09 Fair CLR 6.1 2.8 80% 2 76.1 1014.6
07 01:56 SW 22 16.09 Fair CLR 6.7 2.8 76% 3 76.17 1015.7
07 00:56 SW 26 16.09 Fair CLR 7.8 2.8 13.9 7.8 71% 4 76.2 1016.0
06 23:56 SW 24 16.09 Fair CLR 7.8 2.2 68% 5 76.23 1016.5
06 22:56 SW 20 16.09 Fair CLR 9.4 0.6 55% 7 76.28 1016.9
06 21:56 SW 19 16.09 Fair CLR 9.4 1.7 59% 7 76.28 1017.1
06 20:56 SW 17 16.09 Fair CLR 10.6 1.1 52% 76.28 1017.1
06 19:56 SW 19 16.09 A Few Clouds FEW090 12.8 0.6 44% 76.25 1016.8
06 18:56 W 24 16.09 A Few Clouds FEW070 13.9 -1.1 15 11.7 36% 76.25 1017.0
06 17:56 SW 15 16.09 Mostly Cloudy BKN080 13.3 -1.7 36% 76.28 1017.4
06 16:56 Vrbl 11 16.09 Overcast OVC075 13.9 -3.3 30% 76.33 1017.7
06 15:56 W 13 16.09 Overcast BKN070 OVC085 13.3 -4.4 29% 76.38 1018.4
06 14:56 Vrbl 6 16.09 Overcast OVC075 12.8 -4.4 30% 76.4 1019.0
06 13:56 W 17 G 28 16.09 Overcast OVC075 13.3 -3.9 30% 76.45 1019.5
06 12:56 NW 9 16.09 Mostly Cloudy BKN070 11.7 -5.6 12.8 4.4 30% 76.5 1020.2
06 11:56 Vrbl 7 16.09 Overcast OVC070 11.1 -5.6 31% 76.53 1020.4
06 10:56 NW 11 16.09 Mostly Cloudy BKN070 10.6 -5.6 32% 76.5 1020.4
06 09:56 E 6 16.09 A Few Clouds FEW085 10 -5.6 33% 76.5 1020.3
06 08:56 N 6 16.09 Partly Cloudy SCT070 7.8 -2.8 47% 76.5 1020.4
06 07:56 Calm 16.09 Overcast SCT065 OVC085 5.6 -1.1 62% 76.48 1020.2
06 06:56 NW 6 16.09 Mostly Cloudy FEW070 SCT090 BKN110 4.4 -1.1 7.2 4.4 68% 76.4 1019.3
06 05:56 NW 6 16.09 Mostly Cloudy BKN110 4.4 0.6 77% 76.38 1018.9
06 04:56 NW 7 16.09 Fair CLR 5 1.7 79% 4 76.35 1018.4
06 03:56 NW 7 16.09 Overcast BKN075 OVC090 5.6 2.2 79% 4 76.33 1018.0
06 02:56 NW 9 16.09 A Few Clouds FEW100 5.6 2.2 79% 4 76.3 1017.7
06 01:56 NW 11 16.09 Mostly Cloudy BKN100 6.1 1.1 71% 4 76.3 1017.9
06 00:56 N 6 16.09 Overcast OVC100 6.7 -1.7 9.4 6.7 55% 76.28 1017.6
05 23:56 NW 6 16.09 Overcast OVC100 7.8 1.7 66% 76.25 1016.9
05 22:56 SW 6 16.09 Overcast OVC095 8.3 2.2 66% 76.23 1016.3
05 21:56 SW 7 16.09 Overcast OVC070 9.4 0.6 55% 9 76.15 1015.5
05 20:56 W 15 16.09 Overcast OVC070 8.3 3.9 74% 6 76.1 1014.9
05 19:56 W 17 16.09 Overcast BKN065 OVC080 8.9 3.3 68% 7 76.05 1014.2
05 18:56 SW 20 16.09 Mostly Cloudy FEW050 BKN065 9.4 3.3 11.1 7.8 66% 7 76.02 1013.8
05 17:56 W 11 16.09 Light Rain BKN041 OVC050 10 2.2 59% 9 76.02 1013.7
05 16:56 SW 9 16.09 Light Rain OVC046 10 1.7 57% 9 76.02 1013.6
05 15:56 SW 13 16.09 Mostly Cloudy BKN039 BKN050 BKN070 11.1 2.2 55% 76.07 1014.2
05 14:56 SW 11 16.09 Overcast SCT035 BKN050 OVC065 10.6 1.7 54% 76.12 1015.2
05 13:56 Vrbl 9 16.09 Overcast FEW026 OVC040 8.9 1.1 58% 8 76.17 1015.7
05 12:56 NW 11 16.09 Overcast BKN042 OVC065 7.8 2.2 10 7.8 68% 6 76.2 1016.3
05 11:56 N 22 16.09 Light Rain SCT021 BKN035 OVC047 8.3 2.2 66% 5 76.2 1016.2
05 10:56 N 20 16.09 Overcast OVC060 10 -1.7 44% 8 76.17 1015.6
05 09:56 NE 17 16.09 Overcast SCT050 OVC060 9.4 -2.8 43% 7 76.15 1014.9
05 08:56 NE 19 16.09 Overcast OVC080 8.9 -1.1 50% 6 76.07 1014.1
05 07:56 NE 20 16.09 Light Rain BKN070 OVC085 7.8 0.6 61% 5 76 1013.0
Date Time (cdt) Wind (kph) Vis. (km) Weather Sky Cond. Air Dwpt Max. Min. Relative Humidity Wind Chill (°C) Heat Index (°C) altimeter (cm) sea level (mb) 1 hr 3 hr 6 hr
6 hour
Temperature (ºC) Pressure Precipitation (cm)